Time;durP1;ratioP1;P1;durP2;ratioP2;P2;SDS_P1;SDS_P2;PMS_P1;PMS_P2;Temp;Humidity;BMP_temperature;BMP_pressure;BME280_temperature;BME280_humidity;BME280_pressure;Samples;Min_cycle;Max_cycle;Signal;HPM_P1;HPM_P2
2023/01/30 00:02:13;;;;;;;39.90;22.90;;;;;;;-4.08;91.80;96717.06;109143;1272;22508;-79
2023/01/30 00:04:44;;;;;;;35.70;21.80;;;;;;;-4.12;91.69;96711.57;109161;1268;25233;-79
2023/01/30 00:07:15;;;;;;;33.50;19.00;;;;;;;-4.14;91.72;96707.45;109126;1269;23645;-79
2023/01/30 00:09:47;;;;;;;37.80;20.20;;;;;;;-4.13;91.78;96705.42;109122;1270;22574;-79
2023/01/30 00:12:18;;;;;;;29.20;18.40;;;;;;;-4.10;92.04;96704.10;109125;1263;22559;-79
2023/01/30 00:14:49;;;;;;;38.50;23.30;;;;;;;-4.08;92.01;96699.21;109149;1271;22555;-79
2023/01/30 00:17:20;;;;;;;32.70;20.70;;;;;;;-4.05;92.06;96694.45;109120;1272;25252;-79
2023/01/30 00:19:51;;;;;;;39.80;21.80;;;;;;;-4.00;92.12;96688.83;109118;1267;22529;-79
2023/01/30 00:22:22;;;;;;;29.30;16.90;;;;;;;-4.00;91.84;96680.35;109143;1272;22530;-79
2023/01/30 00:24:53;;;;;;;33.60;21.20;;;;;;;-4.00;91.96;96675.17;109136;1270;24209;-79
2023/01/30 00:27:24;;;;;;;39.60;19.80;;;;;;;-4.00;91.63;96672.74;109150;1268;23993;-79
2023/01/30 00:29:57;;;;;;;29.20;15.30;;;;;;;-4.05;91.40;96659.40;109160;1272;22517;-79
2023/01/30 00:32:28;;;;;;;31.20;15.40;;;;;;;-4.11;91.23;96644.43;109153;1272;22640;-79
2023/01/30 00:34:59;;;;;;;32.10;18.10;;;;;;;-4.15;91.11;96645.96;109147;1269;22521;-79
2023/01/30 00:37:32;;;;;;;27.40;15.90;;;;;;;-4.21;90.97;96638.82;109103;1271;22516;-79
2023/01/30 00:40:04;;;;;;;31.50;15.10;;;;;;;-4.24;91.00;96633.64;109135;1268;23514;-78
2023/01/30 00:48:13;;;;;;;27.00;14.90;;;;;;;-4.26;90.94;96617.54;109041;1272;30040;-79
2023/01/30 00:50:44;;;;;;;26.30;14.50;;;;;;;-4.27;91.02;96614.51;109148;1272;22545;-79
2023/01/30 00:53:16;;;;;;;36.60;18.10;;;;;;;-4.28;90.98;96609.11;109125;1270;22574;-79
2023/01/30 00:56:03;;;;;;;34.50;19.90;;;;;;;-4.30;90.96;96596.95;109147;1272;24219;-79
2023/01/30 00:58:34;;;;;;;23.20;15.40;;;;;;;-4.31;90.92;96587.80;109115;1272;22577;-78
2023/01/30 01:01:05;;;;;;;30.00;18.60;;;;;;;-4.33;90.87;96579.59;109156;1265;23480;-79
2023/01/30 01:03:36;;;;;;;33.40;20.40;;;;;;;-4.36;90.93;96573.55;109131;1272;22535;-79
2023/01/30 01:06:10;;;;;;;33.30;18.80;;;;;;;-4.39;90.92;96566.30;109160;1272;25264;-79
2023/01/30 01:08:41;;;;;;;29.70;15.70;;;;;;;-4.41;90.83;96563.65;109174;1265;22519;-79
2023/01/30 01:11:23;;;;;;;26.70;17.90;;;;;;;-4.43;91.02;96556.67;109174;1272;23300;-79
2023/01/30 01:13:56;;;;;;;19.50;12.50;;;;;;;-4.45;91.10;96547.27;109177;1272;22534;-79
2023/01/30 01:16:29;;;;;;;35.40;19.20;;;;;;;-4.42;91.16;96539.41;109081;1265;22556;-79
2023/01/30 01:19:01;;;;;;;27.80;16.10;;;;;;;-4.37;91.18;96533.18;109138;1248;22566;-79
2023/01/30 01:21:32;;;;;;;27.80;17.70;;;;;;;-4.34;91.15;96528.50;109140;1272;25389;-79
2023/01/30 01:24:03;;;;;;;20.40;12.40;;;;;;;-4.33;91.05;96519.94;109130;1272;22531;-79
2023/01/30 01:26:35;;;;;;;25.20;15.80;;;;;;;-4.30;91.21;96510.17;109148;1267;23771;-79
2023/01/30 01:29:06;;;;;;;24.60;15.70;;;;;;;-4.24;91.32;96505.50;109123;1272;25025;-79
2023/01/30 01:31:38;;;;;;;25.90;16.10;;;;;;;-4.24;91.10;96504.79;109108;1272;23827;-79
2023/01/30 01:34:09;;;;;;;23.10;13.70;;;;;;;-4.25;91.02;96501.31;109135;1272;24234;-78
2023/01/30 01:36:40;;;;;;;24.40;14.30;;;;;;;-4.25;90.95;96497.94;108806;1266;23804;-78
2023/01/30 01:39:13;;;;;;;27.00;14.70;;;;;;;-4.25;90.93;96496.39;108822;1272;22541;-78
2023/01/30 01:41:45;;;;;;;17.20;10.00;;;;;;;-4.27;90.93;96489.41;108813;1266;22548;-78
2023/01/30 01:44:17;;;;;;;23.00;14.80;;;;;;;-4.26;90.88;96491.88;108815;1272;22539;-78
2023/01/30 01:46:53;;;;;;;24.40;14.70;;;;;;;-4.26;90.66;96483.95;108826;1272;22520;-78
2023/01/30 01:49:28;;;;;;;25.50;15.60;;;;;;;-4.29;90.39;96472.15;108871;1261;22534;-78
2023/01/30 01:52:05;;;;;;;22.50;13.70;;;;;;;-4.33;90.40;96469.23;108848;1268;22527;-78
2023/01/30 01:54:42;;;;;;;22.20;13.10;;;;;;;-4.35;90.33;96464.48;108774;1272;23842;-78
2023/01/30 01:57:20;;;;;;;19.80;12.90;;;;;;;-4.39;90.00;96456.27;108803;1272;25649;-78
2023/01/30 01:59:55;;;;;;;16.60;10.10;;;;;;;-4.44;89.73;96442.79;108843;1272;24128;-78
2023/01/30 02:02:28;;;;;;;19.20;11.80;;;;;;;-4.49;89.42;96431.66;108833;1272;22572;-78
2023/01/30 02:05:05;;;;;;;17.70;9.80;;;;;;;-4.54;89.26;96422.80;108872;1268;22533;-78
2023/01/30 02:07:41;;;;;;;16.30;9.10;;;;;;;-4.58;88.94;96417.54;108837;1272;22527;-78
2023/01/30 02:10:18;;;;;;;15.00;10.10;;;;;;;-4.62;88.61;96413.92;108866;1272;23259;-77
2023/01/30 02:12:50;;;;;;;14.50;8.70;;;;;;;-4.62;88.18;96408.60;108959;1265;22513;-78
2023/01/30 02:15:21;;;;;;;14.70;8.00;;;;;;;-4.62;87.93;96404.10;108837;1272;22525;-78
2023/01/30 02:17:54;;;;;;;10.70;6.30;;;;;;;-4.60;88.09;96399.94;109024;1272;23801;-78
2023/01/30 02:20:32;;;;;;;12.70;7.40;;;;;;;-4.56;88.36;96385.59;109089;1272;22532;-78
2023/01/30 02:23:32;;;;;;;11.50;7.80;;;;;;;-4.50;87.98;96385.88;108820;1272;26684;-78
2023/01/30 02:26:24;;;;;;;;;;;;;;;-4.51;87.33;96380.29;108838;1268;22491;-78
2023/01/30 02:29:24;;;;;;;14.60;8.30;;;;;;;-4.51;87.21;96370.66;108722;1272;25420;-78
2023/01/30 02:31:59;;;;;;;14.00;9.50;;;;;;;-4.54;86.74;96377.20;108680;1266;209907;-78
2023/01/30 02:34:45;;;;;;;16.30;9.30;;;;;;;-4.55;86.75;96379.82;108812;1268;25398;-78
2023/01/30 02:37:28;;;;;;;12.40;8.90;;;;;;;-4.56;86.63;96381.05;109117;1272;22522;-78
2023/01/30 02:40:14;;;;;;;14.10;9.50;;;;;;;-4.58;86.48;96363.42;109177;1272;22552;-78
2023/01/30 02:42:51;;;;;;;14.00;7.40;;;;;;;-4.60;86.23;96361.84;109157;1272;25416;-78
2023/01/30 02:45:30;;;;;;;14.90;8.50;;;;;;;-4.67;86.13;96356.58;109131;1272;22687;-78
2023/01/30 02:48:05;;;;;;;12.10;8.40;;;;;;;-4.69;85.88;96353.90;108791;1272;22526;-79
2023/01/30 02:50:42;;;;;;;13.50;8.30;;;;;;;-4.73;85.68;96351.65;109125;1272;23812;-79
2023/01/30 02:53:14;;;;;;;11.50;7.00;;;;;;;-4.80;85.56;96358.32;109186;1272;23797;-79
2023/01/30 02:55:45;;;;;;;16.30;8.60;;;;;;;-4.82;85.62;96344.95;109155;1272;22542;-79
2023/01/30 02:58:19;;;;;;;13.20;8.00;;;;;;;-4.81;85.58;96342.48;109134;1272;25544;-79
2023/01/30 03:01:07;;;;;;;12.10;7.30;;;;;;;-4.80;85.61;96343.23;109203;1272;22568;-79
2023/01/30 03:03:55;;;;;;;15.40;8.60;;;;;;;-4.76;85.71;96334.82;109197;1268;25444;-80
2023/01/30 03:06:46;;;;;;;15.20;9.00;;;;;;;-4.73;85.57;96330.89;109148;1272;22609;-79
2023/01/30 03:09:30;;;;;;;11.80;6.90;;;;;;;-4.72;85.52;96319.67;109109;1272;22563;-79
2023/01/30 03:12:08;;;;;;;10.20;6.00;;;;;;;-4.75;85.36;96313.73;109144;1266;26566;-80
2023/01/30 03:14:46;;;;;;;15.30;8.70;;;;;;;-4.78;85.41;96310.34;109143;1272;22508;-79
2023/01/30 03:17:20;;;;;;;16.20;6.90;;;;;;;-4.77;85.45;96302.42;109167;1271;21824;-79
2023/01/30 03:19:53;;;;;;;15.50;8.40;;;;;;;-4.76;85.30;96304.58;109184;1268;25447;-80
2023/01/30 03:22:24;;;;;;;12.20;6.30;;;;;;;-4.78;85.28;96299.23;109144;1265;22560;-79
2023/01/30 03:24:56;;;;;;;11.60;6.90;;;;;;;-4.81;85.19;96286.63;109198;1272;22555;-80
2023/01/30 03:27:27;;;;;;;13.20;8.00;;;;;;;-4.82;85.28;96280.23;109170;1272;22558;-79
2023/01/30 03:29:58;;;;;;;15.20;9.60;;;;;;;-4.84;85.08;96273.93;109176;1272;22520;-79
2023/01/30 03:32:29;;;;;;;14.30;7.80;;;;;;;-4.85;85.00;96264.18;109193;1272;23856;-80
2023/01/30 03:35:00;;;;;;;15.40;7.00;;;;;;;-4.85;84.66;96265.34;109161;1272;22507;-80
2023/01/30 03:37:31;;;;;;;19.40;10.80;;;;;;;-4.83;84.53;96262.20;109113;1272;32797;-79
2023/01/30 03:40:03;;;;;;;17.10;9.50;;;;;;;-4.85;84.32;96263.50;109144;1272;22570;-79
2023/01/30 03:42:35;;;;;;;17.40;10.10;;;;;;;-4.87;84.39;96260.76;109140;1272;22543;-80
2023/01/30 03:45:07;;;;;;;12.20;7.00;;;;;;;-4.88;84.11;96259.60;109173;1251;22525;-79
2023/01/30 03:47:38;;;;;;;11.40;6.20;;;;;;;-4.90;84.03;96259.52;109074;1272;24511;-80
2023/01/30 03:50:12;;;;;;;17.30;9.00;;;;;;;-4.92;84.08;96256.40;109141;1265;22552;-79
2023/01/30 03:52:43;;;;;;;16.10;10.10;;;;;;;-4.94;84.08;96255.30;109083;1266;22661;-79
2023/01/30 03:55:14;;;;;;;14.20;8.70;;;;;;;-4.95;84.16;96255.40;109148;1262;22541;-79
2023/01/30 03:57:47;;;;;;;12.70;8.10;;;;;;;-4.94;84.02;96252.55;109192;1271;22521;-79
2023/01/30 04:00:22;;;;;;;16.00;9.50;;;;;;;-4.92;84.03;96242.71;109172;1272;24224;-79
2023/01/30 04:02:53;;;;;;;16.30;9.80;;;;;;;-4.93;84.06;96245.88;109143;1272;22563;-79
2023/01/30 04:05:24;;;;;;;15.50;9.30;;;;;;;-4.92;84.17;96245.61;109187;1268;23971;-79
2023/01/30 04:07:57;;;;;;;12.30;6.60;;;;;;;-4.91;84.09;96232.42;109137;1268;22864;-80
2023/01/30 04:10:28;;;;;;;14.00;8.60;;;;;;;-4.91;84.30;96225.79;109178;1271;22518;-80
2023/01/30 04:13:01;;;;;;;10.50;6.60;;;;;;;-4.90;84.28;96227.92;109115;1272;24185;-80
2023/01/30 04:15:32;;;;;;;14.10;7.20;;;;;;;-4.88;83.98;96227.50;109134;1272;23128;-79
2023/01/30 04:18:04;;;;;;;12.70;7.50;;;;;;;-4.84;83.81;96224.09;109149;1272;22912;-79
2023/01/30 04:20:35;;;;;;;13.50;8.40;;;;;;;-4.82;83.67;96217.65;109189;1272;22524;-80
2023/01/30 04:23:06;;;;;;;15.30;8.80;;;;;;;-4.83;83.55;96226.89;109119;1268;22541;-80
2023/01/30 04:25:39;;;;;;;13.20;8.10;;;;;;;-4.81;83.53;96221.67;109145;1272;22533;-80
2023/01/30 04:28:10;;;;;;;12.50;8.10;;;;;;;-4.80;83.27;96221.45;109146;1272;22640;-80
2023/01/30 04:30:41;;;;;;;14.80;8.90;;;;;;;-4.79;83.50;96222.92;109121;1272;24213;-80
2023/01/30 04:33:12;;;;;;;13.00;8.90;;;;;;;-4.80;83.38;96217.52;109119;1272;24235;-80
2023/01/30 04:35:50;;;;;;;10.10;5.10;;;;;;;-4.79;83.23;96216.91;109178;1272;25254;-80
2023/01/30 04:38:22;;;;;;;11.80;8.10;;;;;;;-4.80;82.83;96214.23;109102;1272;22562;-79
2023/01/30 04:40:55;;;;;;;9.90;5.70;;;;;;;-4.80;82.76;96216.11;109124;1272;22535;-80
2023/01/30 04:43:28;;;;;;;11.30;8.10;;;;;;;-4.80;82.63;96211.77;109158;1272;22549;-80
2023/01/30 04:45:59;;;;;;;14.70;9.10;;;;;;;-4.80;82.52;96209.07;109124;1272;24232;-80
2023/01/30 04:48:32;;;;;;;11.10;7.50;;;;;;;-4.80;82.72;96203.59;109137;1272;22543;-80
2023/01/30 04:51:04;;;;;;;12.10;6.10;;;;;;;-4.78;82.49;96196.77;109175;1272;22517;-80
2023/01/30 04:53:35;;;;;;;13.40;8.20;;;;;;;-4.74;82.32;96189.90;109098;1272;22522;-80
2023/01/30 04:56:08;;;;;;;13.40;7.90;;;;;;;-4.72;82.14;96189.52;109140;1271;22520;-80
2023/01/30 04:58:39;;;;;;;10.40;7.40;;;;;;;-4.72;82.17;96183.98;109129;1272;34270;-79
2023/01/30 05:01:21;;;;;;;12.10;7.80;;;;;;;-4.72;82.24;96184.05;109195;1272;22641;-80
2023/01/30 05:03:53;;;;;;;12.00;7.30;;;;;;;-4.69;81.88;96181.05;109143;1268;22514;-80
2023/01/30 05:06:25;;;;;;;10.00;6.20;;;;;;;-4.63;81.24;96179.69;109186;1272;25266;-79
2023/01/30 05:08:57;;;;;;;11.60;7.40;;;;;;;-4.59;81.06;96182.24;109148;1272;23856;-79
2023/01/30 05:11:29;;;;;;;8.80;5.10;;;;;;;-4.58;81.03;96174.16;109172;1272;22561;-80
2023/01/30 05:14:01;;;;;;;11.60;7.40;;;;;;;-4.58;80.50;96178.35;109109;1272;22548;-79
2023/01/30 05:16:32;;;;;;;11.50;6.00;;;;;;;-4.55;80.48;96168.52;109158;1272;22558;-80
2023/01/30 05:19:03;;;;;;;11.10;6.50;;;;;;;-4.52;80.02;96166.73;109159;1272;22564;-80
2023/01/30 05:21:36;;;;;;;8.30;5.90;;;;;;;-4.50;79.75;96170.52;109189;1272;23708;-80
2023/01/30 05:24:08;;;;;;;9.50;5.60;;;;;;;-4.48;79.37;96165.30;109160;1272;23705;-80
2023/01/30 05:26:39;;;;;;;12.80;7.20;;;;;;;-4.43;78.79;96162.87;109156;1272;34685;-80
2023/01/30 05:29:11;;;;;;;6.90;4.50;;;;;;;-4.41;78.56;96164.98;109187;1268;22527;-80
2023/01/30 05:31:42;;;;;;;11.00;6.40;;;;;;;-4.39;78.34;96152.59;109241;1269;22568;-80
2023/01/30 05:34:16;;;;;;;12.70;7.90;;;;;;;-4.35;77.92;96150.47;109193;1272;22555;-79
2023/01/30 05:36:49;;;;;;;12.70;8.10;;;;;;;-4.31;78.16;96140.58;109132;1272;22824;-80
2023/01/30 05:39:21;;;;;;;13.50;7.90;;;;;;;-4.30;78.27;96143.80;109155;1272;22646;-79
2023/01/30 05:41:52;;;;;;;9.90;5.40;;;;;;;-4.30;78.43;96145.15;109160;1272;22845;-79
2023/01/30 05:44:23;;;;;;;10.60;5.20;;;;;;;-4.29;77.89;96148.25;109176;1272;22523;-79
2023/01/30 05:46:54;;;;;;;10.70;6.20;;;;;;;-4.26;77.61;96155.85;109159;1272;22570;-80
2023/01/30 05:49:25;;;;;;;10.10;6.20;;;;;;;-4.25;77.46;96155.22;109204;1272;22568;-79
2023/01/30 05:51:58;;;;;;;7.90;4.30;;;;;;;-4.24;77.25;96142.45;109132;1272;22543;-80
2023/01/30 05:54:29;;;;;;;9.10;4.20;;;;;;;-4.24;76.71;96131.96;109183;1268;22598;-80
2023/01/30 05:57:01;;;;;;;11.90;7.10;;;;;;;-4.23;76.17;96119.41;109125;1271;30360;-80
2023/01/30 05:59:35;;;;;;;9.60;6.50;;;;;;;-4.22;76.33;96113.92;109178;1272;22545;-80
2023/01/30 06:02:06;;;;;;;12.50;6.60;;;;;;;-4.23;76.46;96111.39;109155;1272;25308;-80
2023/01/30 06:04:37;;;;;;;11.80;5.80;;;;;;;-4.22;76.28;96113.92;109148;1272;22619;-80
2023/01/30 06:07:08;;;;;;;9.60;5.30;;;;;;;-4.19;75.75;96097.00;109153;1272;23735;-79
2023/01/30 06:09:39;;;;;;;11.60;6.10;;;;;;;-4.16;74.79;96101.50;109202;1268;23291;-80
2023/01/30 06:12:10;;;;;;;12.20;6.40;;;;;;;-4.16;74.56;96104.20;109178;1270;25569;-79
2023/01/30 06:14:42;;;;;;;10.10;6.10;;;;;;;-4.14;74.40;96095.05;109164;1269;24212;-79
2023/01/30 06:17:13;;;;;;;8.20;5.20;;;;;;;-4.13;74.26;96097.06;109108;1272;22551;-79
2023/01/30 06:19:44;;;;;;;9.40;5.20;;;;;;;-4.13;74.28;96098.98;109143;1267;22537;-79
2023/01/30 06:22:16;;;;;;;11.40;7.20;;;;;;;-4.13;73.95;96089.66;109149;1272;22528;-79
2023/01/30 06:24:47;;;;;;;9.80;5.70;;;;;;;-4.14;73.56;96083.49;109164;1272;23154;-79
2023/01/30 06:27:18;;;;;;;10.30;6.60;;;;;;;-4.15;73.36;96096.11;109124;1271;26399;-79
2023/01/30 06:29:49;;;;;;;10.50;5.30;;;;;;;-4.13;73.15;96095.88;109181;1272;25252;-79
2023/01/30 06:32:21;;;;;;;13.60;7.20;;;;;;;-4.10;73.22;96105.02;109185;1269;22516;-79
2023/01/30 06:34:52;;;;;;;12.40;7.00;;;;;;;-4.07;72.47;96104.17;109225;1272;22985;-78
2023/01/30 06:37:23;;;;;;;11.20;7.50;;;;;;;-4.05;72.15;96080.20;109166;1272;24251;-79
2023/01/30 06:39:54;;;;;;;9.90;6.40;;;;;;;-4.05;72.10;96080.88;109155;1272;22531;-78
2023/01/30 06:42:26;;;;;;;10.40;6.20;;;;;;;-4.05;71.96;96066.50;109168;1272;25259;-80
2023/01/30 06:44:59;;;;;;;11.50;6.50;;;;;;;-4.05;71.99;96076.17;109196;1272;22913;-79
2023/01/30 06:47:30;;;;;;;11.70;5.60;;;;;;;-4.05;71.92;96066.63;109202;1271;23878;-79
2023/01/30 06:50:01;;;;;;;8.70;5.40;;;;;;;-4.07;72.02;96048.73;109180;1272;22562;-79
2023/01/30 06:52:33;;;;;;;12.00;7.00;;;;;;;-4.07;72.07;96040.54;109183;1272;25244;-79
2023/01/30 06:55:05;;;;;;;12.20;6.90;;;;;;;-4.04;72.04;96038.94;109171;1272;22528;-79
2023/01/30 06:57:36;;;;;;;11.80;7.10;;;;;;;-4.03;71.56;96038.62;109185;1270;22680;-79
2023/01/30 07:00:10;;;;;;;13.10;7.00;;;;;;;-4.01;71.61;96015.15;109163;1268;22518;-79
2023/01/30 07:02:42;;;;;;;11.60;7.00;;;;;;;-4.02;71.50;96012.81;109228;1272;22536;-79
2023/01/30 07:05:13;;;;;;;13.00;6.20;;;;;;;-4.01;71.68;96011.69;109172;1272;26588;-81
2023/01/30 07:07:44;;;;;;;9.30;6.30;;;;;;;-4.01;71.46;96018.58;109206;1272;22552;-81
2023/01/30 07:10:16;;;;;;;11.90;6.40;;;;;;;-4.00;71.30;96036.85;109164;1257;22551;-81
2023/01/30 07:12:48;;;;;;;11.70;6.80;;;;;;;-3.99;71.42;96032.95;109109;1251;22517;-81
2023/01/30 07:15:19;;;;;;;10.20;6.70;;;;;;;-4.00;71.51;96010.34;109163;1272;22540;-81
2023/01/30 07:17:53;;;;;;;12.80;7.20;;;;;;;-4.00;71.75;96005.67;109177;1272;22542;-81
2023/01/30 07:20:28;;;;;;;11.00;6.60;;;;;;;-4.01;71.90;96004.08;109192;1272;22726;-81
2023/01/30 07:23:00;;;;;;;11.10;6.10;;;;;;;-4.02;72.05;96020.58;109195;1272;22532;-81
2023/01/30 07:25:31;;;;;;;11.40;6.60;;;;;;;-4.01;72.11;96014.41;109205;1267;23301;-81
2023/01/30 07:28:04;;;;;;;11.80;6.90;;;;;;;-4.01;72.18;96019.21;109130;1261;22540;-81
2023/01/30 07:30:38;;;;;;;12.30;7.20;;;;;;;-4.00;72.40;96011.13;109151;1272;25463;-81
2023/01/30 07:33:10;;;;;;;12.20;7.80;;;;;;;-3.99;72.76;96005.15;109244;1271;22539;-81
2023/01/30 07:35:42;;;;;;;14.10;7.30;;;;;;;-3.94;73.06;96005.94;109142;1264;24219;-81
2023/01/30 07:38:18;;;;;;;13.30;7.50;;;;;;;-3.92;72.52;95996.59;109196;1272;22546;-81
2023/01/30 07:40:49;;;;;;;10.00;6.60;;;;;;;-3.88;72.47;95994.19;109088;1272;22547;-81
2023/01/30 07:43:20;;;;;;;12.40;7.10;;;;;;;-3.83;72.20;95983.33;109154;1272;26927;-81
2023/01/30 07:45:51;;;;;;;13.90;8.20;;;;;;;-3.77;72.07;95987.66;109233;1266;23315;-81
2023/01/30 07:48:23;;;;;;;11.00;6.50;;;;;;;-3.73;71.93;95989.80;109182;1270;22532;-82
2023/01/30 07:50:56;;;;;;;10.50;7.00;;;;;;;-3.69;71.87;95976.08;109219;1272;22510;-81
2023/01/30 07:53:28;;;;;;;15.10;7.90;;;;;;;-3.62;72.10;95972.75;109207;1270;22730;-81
2023/01/30 07:55:59;;;;;;;10.20;6.30;;;;;;;-3.58;71.97;95942.73;109188;1270;22532;-81
2023/01/30 07:58:31;;;;;;;12.20;6.40;;;;;;;-3.54;72.16;95955.30;107659;1272;2053331;-81
2023/01/30 08:01:02;;;;;;;14.50;6.40;;;;;;;-3.52;72.14;95946.09;109140;1272;22701;-81
2023/01/30 08:03:33;;;;;;;15.00;8.50;;;;;;;-3.51;72.22;95962.36;109222;1272;24954;-83
2023/01/30 08:06:04;;;;;;;13.40;7.80;;;;;;;-3.48;72.46;95967.16;109247;1272;22531;-81
2023/01/30 08:08:36;;;;;;;14.70;7.80;;;;;;;-3.45;72.52;95967.11;109214;1267;23636;-82
2023/01/30 08:11:13;;;;;;;11.00;6.40;;;;;;;-3.43;72.81;95960.61;109195;1272;25244;-81
2023/01/30 08:13:44;;;;;;;11.50;6.90;;;;;;;-3.38;73.22;95964.77;109191;1267;22521;-81
2023/01/30 08:16:15;;;;;;;10.40;6.60;;;;;;;-3.32;73.54;95975.30;109202;1268;23032;-81
2023/01/30 08:18:49;;;;;;;13.70;8.30;;;;;;;-3.27;73.17;95983.96;109153;1272;22785;-81
2023/01/30 08:21:24;;;;;;;13.40;8.20;;;;;;;-3.21;73.41;95979.57;109200;1269;22526;-82
2023/01/30 08:23:55;;;;;;;12.00;6.80;;;;;;;-3.15;74.11;95976.61;109213;1272;23045;-82
2023/01/30 08:26:26;;;;;;;11.90;7.50;;;;;;;-3.04;74.09;95981.35;109130;1272;22521;-82
2023/01/30 08:28:58;;;;;;;8.40;5.40;;;;;;;-2.91;74.33;95979.76;109185;1267;22645;-81
2023/01/30 08:31:30;;;;;;;11.80;7.60;;;;;;;-2.77;74.46;95974.81;109233;1272;22520;-81
2023/01/30 08:34:01;;;;;;;13.20;8.10;;;;;;;-2.71;74.66;95967.60;109187;1272;25739;-81
2023/01/30 08:36:32;;;;;;;12.80;8.00;;;;;;;-2.63;74.80;95959.54;109216;1272;22527;-82
2023/01/30 08:39:04;;;;;;;12.80;8.70;;;;;;;-2.60;74.76;95955.63;109212;1270;39600;-81
2023/01/30 08:41:35;;;;;;;13.70;8.90;;;;;;;-2.55;75.05;95953.23;109148;1272;22614;-81
2023/01/30 08:44:07;;;;;;;11.90;7.40;;;;;;;-2.49;75.32;95957.39;109178;1267;23834;-82
2023/01/30 08:46:39;;;;;;;14.90;9.30;;;;;;;-2.45;75.25;95956.84;109222;1264;22528;-81
2023/01/30 08:49:12;;;;;;;11.70;5.70;;;;;;;-2.41;75.56;95954.38;109202;1272;22531;-81
2023/01/30 08:51:44;;;;;;;13.20;8.40;;;;;;;-2.31;75.54;95954.92;109241;1270;24277;-82
2023/01/30 08:54:18;;;;;;;14.00;9.00;;;;;;;-2.18;75.86;95961.31;109207;1272;25284;-82
2023/01/30 08:56:50;;;;;;;13.30;9.00;;;;;;;-1.96;75.73;95957.59;109171;1272;24244;-82
2023/01/30 08:59:22;;;;;;;12.40;8.30;;;;;;;-1.77;75.58;95962.55;109205;1272;22526;-82
2023/01/30 09:01:53;;;;;;;13.00;8.00;;;;;;;-1.70;75.00;95966.02;109150;1264;23599;-82
2023/01/30 09:04:25;;;;;;;8.80;5.50;;;;;;;-1.72;74.69;95959.27;109181;1271;22534;-82
2023/01/30 09:06:59;;;;;;;9.10;6.40;;;;;;;-1.80;74.39;95943.24;109160;1272;45818;-81
2023/01/30 09:09:31;;;;;;;12.30;6.80;;;;;;;-1.95;73.84;95928.38;109228;1272;25464;-82
2023/01/30 09:12:02;;;;;;;12.10;6.60;;;;;;;-1.99;74.31;95928.02;109192;1257;23236;-82
2023/01/30 09:14:34;;;;;;;11.30;7.40;;;;;;;-1.99;74.04;95939.73;109177;1272;23816;-81
2023/01/30 09:17:05;;;;;;;14.50;8.40;;;;;;;-2.19;73.42;95928.77;109149;1267;67143;-82
2023/01/30 09:19:37;;;;;;;8.80;5.80;;;;;;;-2.31;73.91;95930.84;109235;1272;26776;-82
2023/01/30 09:22:09;;;;;;;11.90;6.10;;;;;;;-2.31;74.96;95915.74;109215;1272;25956;-82
2023/01/30 09:24:40;;;;;;;11.00;6.90;;;;;;;-2.26;75.18;95910.10;109220;1272;22723;-80
2023/01/30 09:27:13;;;;;;;10.70;7.50;;;;;;;-2.27;75.36;95907.08;109095;1267;62044;-82
2023/01/30 09:29:46;;;;;;;11.70;7.10;;;;;;;-2.28;75.79;95899.06;109212;1272;22558;-82
2023/01/30 09:32:17;;;;;;;10.10;5.70;;;;;;;-2.21;76.07;95897.30;109177;1272;25303;-81
2023/01/30 09:34:49;;;;;;;8.80;5.50;;;;;;;-2.08;76.22;95885.79;109252;1272;22691;-82
2023/01/30 09:37:20;;;;;;;8.60;5.00;;;;;;;-1.94;76.54;95890.65;109170;1268;53083;-82
2023/01/30 09:39:51;;;;;;;8.80;5.00;;;;;;;-1.81;76.61;95891.38;109197;1265;23259;-82
2023/01/30 09:42:52;;;;;;;10.10;5.60;;;;;;;-1.59;76.61;95889.47;109182;1269;22771;-82
2023/01/30 09:45:41;;;;;;;11.00;6.30;;;;;;;-1.41;76.21;95872.59;109184;1272;22514;-81
2023/01/30 09:48:19;;;;;;;10.80;6.80;;;;;;;-1.29;75.71;95879.52;109114;1269;29014;-82
2023/01/30 09:51:12;;;;;;;11.30;7.70;;;;;;;-1.12;76.09;95861.20;109214;1272;22573;-82
2023/01/30 09:54:04;;;;;;;11.30;7.50;;;;;;;-1.06;75.33;95855.61;109126;1272;22558;-82
2023/01/30 09:56:36;;;;;;;12.30;7.10;;;;;;;-1.10;74.92;95829.68;109184;1266;22564;-81
2023/01/30 09:59:13;;;;;;;12.90;8.00;;;;;;;-1.11;74.56;95845.14;109191;1254;22649;-81
2023/01/30 10:01:53;;;;;;;12.00;6.60;;;;;;;-1.16;75.14;95848.87;109186;1272;24221;-82
2023/01/30 10:04:33;;;;;;;11.70;6.80;;;;;;;-1.14;75.73;95840.48;109242;1272;23823;-82
2023/01/30 10:07:15;;;;;;;11.40;6.60;;;;;;;-1.01;75.95;95844.66;109144;1267;23030;-82
2023/01/30 10:09:58;;;;;;;9.70;6.20;;;;;;;-0.93;75.86;95839.45;109229;1272;25352;-82
2023/01/30 10:12:43;;;;;;;12.90;6.60;;;;;;;-1.01;74.94;95836.45;109155;1265;22561;-82
2023/01/30 10:15:42;;;;;;;9.40;6.80;;;;;;;-1.16;74.71;95829.73;109204;1264;22522;-82
2023/01/30 10:18:38;;;;;;;10.10;6.50;;;;;;;-1.20;75.23;95810.73;109195;1272;23796;-82
2023/01/30 10:21:25;;;;;;;10.50;6.10;;;;;;;-1.22;75.66;95804.69;109108;1272;22521;-82
2023/01/30 10:24:15;;;;;;;10.10;7.30;;;;;;;-1.24;75.77;95808.48;109238;1272;22553;-82
2023/01/30 10:26:48;;;;;;;12.40;7.80;;;;;;;-1.23;75.67;95810.08;109121;1272;24353;-81
2023/01/30 10:29:22;;;;;;;11.00;6.90;;;;;;;-1.17;75.86;95803.45;109232;1272;22606;-82
2023/01/30 10:32:00;;;;;;;11.80;8.50;;;;;;;-1.10;75.49;95805.28;109299;1265;25396;-82
2023/01/30 10:34:34;;;;;;;10.70;7.10;;;;;;;-1.08;75.44;95789.84;109150;1272;22710;-82
2023/01/30 10:37:12;;;;;;;11.70;6.90;;;;;;;-1.09;75.44;95772.33;109232;1272;22545;-82
2023/01/30 10:39:51;;;;;;;10.70;7.30;;;;;;;-1.14;75.11;95776.00;109234;1269;22542;-82
2023/01/30 10:42:27;;;;;;;10.60;7.20;;;;;;;-1.25;75.35;95769.66;109188;1265;22575;-82
2023/01/30 10:45:10;;;;;;;9.10;5.60;;;;;;;-1.35;75.49;95772.85;109153;1272;24162;-83
2023/01/30 10:47:52;;;;;;;12.10;7.00;;;;;;;-1.38;76.00;95767.33;109184;1266;52133;-83
2023/01/30 10:50:30;;;;;;;15.70;7.80;;;;;;;-1.38;75.98;95764.98;109066;1267;22583;-83
2023/01/30 10:53:10;;;;;;;12.90;8.40;;;;;;;-1.40;76.24;95773.52;109260;1266;23886;-81
2023/01/30 10:55:48;;;;;;;12.90;7.90;;;;;;;-1.35;76.51;95774.32;109189;1272;22631;-83
2023/01/30 10:58:25;;;;;;;10.70;7.50;;;;;;;-1.27;76.47;95762.80;109195;1272;22550;-82
2023/01/30 11:01:01;;;;;;;10.90;7.40;;;;;;;-1.26;76.65;95753.55;109209;1272;26449;-82
2023/01/30 11:03:40;;;;;;;13.30;6.90;;;;;;;-1.23;76.75;95743.51;109304;1264;22564;-82
2023/01/30 11:06:16;;;;;;;14.10;10.30;;;;;;;-1.24;76.74;95726.16;109227;1269;26475;-82
2023/01/30 11:08:47;;;;;;;11.00;7.80;;;;;;;-1.25;76.83;95723.02;109184;1269;26608;-82
2023/01/30 11:11:37;;;;;;;13.00;6.80;;;;;;;-1.28;76.91;95721.64;109159;1272;22540;-82
2023/01/30 11:14:10;;;;;;;10.90;7.20;;;;;;;-1.32;76.90;95733.46;109140;1265;22559;-82
2023/01/30 11:16:47;;;;;;;11.70;7.20;;;;;;;-1.36;77.17;95708.25;109185;1272;22527;-81
2023/01/30 11:19:22;;;;;;;11.80;6.50;;;;;;;-1.40;77.25;95712.06;109311;1272;22546;-81
2023/01/30 11:22:00;;;;;;;13.10;9.20;;;;;;;-1.42;77.29;95701.23;109218;1266;22550;-82
2023/01/30 11:24:39;;;;;;;12.10;8.00;;;;;;;-1.44;77.62;95688.83;109197;1265;22520;-81
2023/01/30 11:27:17;;;;;;;13.40;7.80;;;;;;;-1.42;77.84;95682.38;109143;1266;32684;-82
2023/01/30 11:29:51;;;;;;;15.90;11.40;;;;;;;-1.37;78.08;95680.53;109239;1271;22536;-82
2023/01/30 11:32:27;;;;;;;14.70;9.50;;;;;;;-1.17;78.00;95680.80;109232;1265;22544;-82
2023/01/30 11:35:21;;;;;;;13.60;10.30;;;;;;;-0.85;78.06;95671.87;109198;1272;24208;-82
2023/01/30 11:37:53;;;;;;;15.30;8.80;;;;;;;-0.65;77.55;95671.09;109123;1272;22632;-82
2023/01/30 11:40:29;;;;;;;12.30;8.60;;;;;;;-0.66;76.81;95677.00;109208;1272;25257;-81
2023/01/30 11:43:11;;;;;;;13.90;10.10;;;;;;;-0.67;76.60;95680.15;109199;1270;23796;-82
2023/01/30 11:45:45;;;;;;;15.10;10.50;;;;;;;-0.71;76.58;95663.44;109167;1272;22626;-82
2023/01/30 11:48:20;;;;;;;15.30;10.20;;;;;;;-0.67;76.99;95674.63;109202;1272;22564;-82
2023/01/30 11:51:00;;;;;;;15.60;10.00;;;;;;;-0.48;76.89;95669.05;109218;1265;22554;-82
2023/01/30 11:53:37;;;;;;;15.70;10.10;;;;;;;-0.52;76.58;95667.41;109210;1272;23248;-81
2023/01/30 11:56:15;;;;;;;13.90;9.40;;;;;;;-0.55;76.77;95666.98;109199;1272;22542;-82